createdAt,value
2023-02-19T00:01:20.180Z,9.8
2023-02-19T00:06:26.227Z,9.8
2023-02-19T00:11:32.308Z,9.8
2023-02-19T00:16:38.409Z,9.8
2023-02-19T00:21:44.448Z,9.8
2023-02-19T00:26:50.481Z,9.8
2023-02-19T00:31:56.696Z,9.8
2023-02-19T00:37:02.616Z,9.8
2023-02-19T00:42:08.699Z,9.8
2023-02-19T00:47:14.864Z,9.8
2023-02-19T00:52:22.688Z,9.8
2023-02-19T00:57:28.767Z,9.7
2023-02-19T01:02:34.842Z,9.7
2023-02-19T01:07:40.873Z,9.7
2023-02-19T01:12:46.946Z,9.7
2023-02-19T01:17:53.386Z,9.7
2023-02-19T01:22:59.060Z,9.7
2023-02-19T01:28:05.142Z,9.7
2023-02-19T01:33:11.206Z,9.7
2023-02-19T01:38:17.275Z,9.7
2023-02-19T01:43:25.213Z,9.7
2023-02-19T01:48:33.147Z,9.7
2023-02-19T01:53:41.057Z,9.7
2023-02-19T01:58:49.024Z,9.7
2023-02-19T02:03:56.978Z,9.7
2023-02-19T02:09:04.977Z,9.7
2023-02-19T02:14:12.820Z,9.7
2023-02-19T02:19:20.775Z,9.7
2023-02-19T02:24:28.684Z,9.7
2023-02-19T02:29:34.791Z,9.7
2023-02-19T02:34:40.831Z,9.7
2023-02-19T02:39:46.874Z,9.7
2023-02-19T02:44:52.947Z,9.7
2023-02-19T02:49:58.992Z,9.7
2023-02-19T02:55:05.095Z,9.7
2023-02-19T03:00:11.430Z,9.7
2023-02-19T03:05:17.201Z,9.7
2023-02-19T03:10:23.272Z,9.7
2023-02-19T03:15:31.199Z,9.7
2023-02-19T03:20:37.272Z,9.7
2023-02-19T03:25:43.334Z,9.7
2023-02-19T03:30:49.387Z,9.7
2023-02-19T03:35:55.820Z,9.7
2023-02-19T03:41:01.535Z,9.7
2023-02-19T03:46:07.712Z,9.7
2023-02-19T03:51:13.640Z,9.7
2023-02-19T03:56:19.738Z,9.7
2023-02-19T04:01:25.772Z,9.6
2023-02-19T04:06:31.857Z,9.6
2023-02-19T04:11:37.952Z,9.6
2023-02-19T04:16:44.017Z,9.6
2023-02-19T04:21:50.035Z,9.6
2023-02-19T04:26:56.126Z,9.6
2023-02-19T04:32:02.188Z,9.6
2023-02-19T04:37:08.238Z,9.6
2023-02-19T04:42:14.308Z,9.6
2023-02-19T04:47:20.372Z,9.6
2023-02-19T04:52:26.461Z,9.6
2023-02-19T04:57:32.506Z,9.6
2023-02-19T05:02:38.614Z,9.6
2023-02-19T05:07:44.668Z,9.6
2023-02-19T05:12:50.699Z,9.6
2023-02-19T05:17:56.764Z,9.6
2023-02-19T05:23:04.742Z,9.6
2023-02-19T05:28:12.690Z,9.6
2023-02-19T05:33:20.580Z,9.6
2023-02-19T05:38:28.828Z,9.6
2023-02-19T05:43:36.468Z,9.6
2023-02-19T05:48:44.409Z,9.6
2023-02-19T05:53:52.358Z,9.6
2023-02-19T05:59:00.258Z,9.6
2023-02-19T06:04:08.245Z,9.6
2023-02-19T06:09:16.197Z,9.6
2023-02-19T06:14:24.087Z,9.5
2023-02-19T06:19:32.139Z,9.5
2023-02-19T06:24:39.958Z,9.5
2023-02-19T06:29:47.896Z,9.5
2023-02-19T06:34:55.841Z,9.5
2023-02-19T06:40:03.792Z,9.5
2023-02-19T06:45:11.700Z,9.5
2023-02-19T06:50:19.624Z,9.5
2023-02-19T06:55:27.576Z,9.5
2023-02-19T07:00:35.591Z,9.5
2023-02-19T07:05:43.455Z,9.5
2023-02-19T07:10:51.384Z,9.5
2023-02-19T07:15:59.391Z,9.5
2023-02-19T07:21:07.255Z,9.5
2023-02-19T07:26:15.198Z,9.5
2023-02-19T07:31:23.218Z,9.5
2023-02-19T07:36:31.068Z,9.4
2023-02-19T07:41:39.001Z,9.4
2023-02-19T07:46:45.087Z,9.4
2023-02-19T07:51:51.135Z,9.4
2023-02-19T07:56:57.203Z,9.4
2023-02-19T08:02:05.176Z,9.4
2023-02-19T08:07:11.199Z,9.4
2023-02-19T08:12:17.294Z,9.4
2023-02-19T08:17:23.368Z,9.4
2023-02-19T08:22:29.396Z,9.4
2023-02-19T08:27:35.587Z,9.4
2023-02-19T08:32:41.545Z,9.4
2023-02-19T08:37:47.595Z,9.4
2023-02-19T08:42:53.645Z,9.4
2023-02-19T08:47:59.712Z,9.4
2023-02-19T08:53:05.787Z,9.4
2023-02-19T08:58:11.867Z,9.4
2023-02-19T09:03:17.914Z,9.4
2023-02-19T09:08:23.982Z,9.4
2023-02-19T09:13:31.980Z,9.4
2023-02-19T09:18:38.006Z,9.4
2023-02-19T09:23:44.044Z,9.4
2023-02-19T09:28:52.010Z,9.4
2023-02-19T09:33:59.936Z,9.4
2023-02-19T09:39:07.893Z,9.4
2023-02-19T09:44:15.832Z,9.4
2023-02-19T09:49:25.907Z,9.4
2023-02-19T09:54:31.738Z,9.4
2023-02-19T09:59:39.633Z,9.4
2023-02-19T10:04:47.622Z,9.4
2023-02-19T10:09:55.536Z,9.4
2023-02-19T10:15:03.448Z,9.4
2023-02-19T10:20:11.393Z,9.4
2023-02-19T10:25:19.309Z,9.5
2023-02-19T10:30:27.330Z,9.5
2023-02-19T10:35:35.169Z,9.5
2023-02-19T10:40:43.125Z,9.5
2023-02-19T10:45:51.043Z,9.5
2023-02-19T10:50:58.992Z,9.5
2023-02-19T10:56:06.940Z,9.5
2023-02-19T11:01:14.882Z,9.5
2023-02-19T11:06:22.803Z,9.5
2023-02-19T11:11:30.738Z,9.5
2023-02-19T11:16:38.702Z,9.5
2023-02-19T11:21:46.610Z,9.5
2023-02-19T11:26:54.547Z,9.6
2023-02-19T11:32:02.581Z,9.6
2023-02-19T11:37:10.419Z,9.6
2023-02-19T11:42:18.355Z,9.6
2023-02-19T11:47:26.279Z,9.6
2023-02-19T11:52:34.237Z,9.6
2023-02-19T11:57:42.227Z,9.6
2023-02-19T12:02:50.105Z,9.6
2023-02-19T12:07:58.032Z,9.6
2023-02-19T12:13:05.998Z,9.7
2023-02-19T12:18:14.084Z,9.7
2023-02-19T12:23:21.862Z,9.7
2023-02-19T12:28:29.803Z,9.7
2023-02-19T12:33:37.724Z,9.7
2023-02-19T12:38:45.646Z,9.7
2023-02-19T12:43:53.600Z,9.7
2023-02-19T12:49:01.548Z,9.7
2023-02-19T12:54:09.497Z,9.8
2023-02-19T12:59:15.559Z,9.8
2023-02-19T13:04:21.623Z,9.8
2023-02-19T13:09:27.693Z,9.8
2023-02-19T13:14:33.754Z,9.8
2023-02-19T13:19:39.820Z,9.9
2023-02-19T13:24:45.889Z,9.9
2023-02-19T13:29:53.261Z,9.9
2023-02-19T13:34:58.029Z,9.9
2023-02-19T13:40:04.262Z,10
2023-02-19T13:45:10.151Z,10
2023-02-19T13:50:16.247Z,10
2023-02-19T13:55:22.280Z,10
2023-02-19T14:00:30.217Z,10
2023-02-19T14:05:36.293Z,10.1
2023-02-19T14:10:42.348Z,10.1
2023-02-19T14:15:48.451Z,10.1
2023-02-19T14:20:54.485Z,10.1
2023-02-19T14:26:00.562Z,10.1
2023-02-19T14:31:06.638Z,10.1
2023-02-19T14:36:12.670Z,10.1
2023-02-19T14:41:18.750Z,10.1
2023-02-19T14:46:26.751Z,10.1
2023-02-19T14:51:34.601Z,10.1
2023-02-19T14:56:42.549Z,10.1
2023-02-19T15:01:50.493Z,10.1
2023-02-19T15:06:58.408Z,10.1
2023-02-19T15:12:06.324Z,10.1
2023-02-19T15:17:14.287Z,10.1
2023-02-19T15:22:22.219Z,10.1
2023-02-19T15:27:30.154Z,10
2023-02-19T15:32:38.082Z,10
2023-02-19T15:37:46.027Z,10
2023-02-19T15:42:53.969Z,10
2023-02-19T15:48:01.915Z,10
2023-02-19T15:53:09.829Z,10
2023-02-19T15:58:17.798Z,10
2023-02-19T16:03:25.727Z,10
2023-02-19T16:08:33.652Z,10
2023-02-19T16:13:41.593Z,10
2023-02-19T16:18:49.528Z,9.9
2023-02-19T16:23:57.452Z,9.9
2023-02-19T16:29:05.391Z,9.9
2023-02-19T16:34:13.352Z,9.9
2023-02-19T16:39:21.290Z,9.9
2023-02-19T16:44:29.230Z,9.9
2023-02-19T16:49:37.149Z,9.9
2023-02-19T16:54:45.109Z,9.8
2023-02-19T16:59:53.033Z,9.8
2023-02-19T17:05:00.974Z,9.8
2023-02-19T17:10:08.922Z,9.8
2023-02-19T17:15:16.881Z,9.8
2023-02-19T17:20:24.788Z,9.8
2023-02-19T17:25:32.758Z,9.7
2023-02-19T17:30:40.952Z,9.7
2023-02-19T17:35:48.631Z,9.7
2023-02-19T17:40:56.573Z,9.7
2023-02-19T17:46:04.544Z,9.7
2023-02-19T17:51:12.800Z,9.6
2023-02-19T17:56:20.445Z,9.6
2023-02-19T18:01:28.430Z,9.6
2023-02-19T18:06:36.291Z,9.6
2023-02-19T18:11:44.226Z,9.6
2023-02-19T18:16:52.245Z,9.6
2023-02-19T18:22:00.174Z,9.5
2023-02-19T18:27:08.054Z,9.5
2023-02-19T18:32:14.106Z,9.5
2023-02-19T18:37:20.175Z,9.5
2023-02-19T18:42:26.234Z,9.5
2023-02-19T18:47:34.194Z,9.4
2023-02-19T18:52:40.254Z,9.4
2023-02-19T18:57:46.324Z,9.4
2023-02-19T19:02:52.398Z,9.4
2023-02-19T19:07:58.453Z,9.4
2023-02-19T19:13:04.549Z,9.4
2023-02-19T19:18:10.551Z,9.3
2023-02-19T19:23:16.642Z,9.3
2023-02-19T19:28:22.698Z,9.3
2023-02-19T19:33:28.793Z,9.3
2023-02-19T19:38:34.829Z,9.3
2023-02-19T19:43:40.873Z,9.2
2023-02-19T19:48:46.940Z,9.2
2023-02-19T19:53:53.021Z,9.2
2023-02-19T19:59:00.937Z,9.2
2023-02-19T20:04:07.016Z,9.2
2023-02-19T20:09:13.276Z,9.1
2023-02-19T20:14:19.138Z,9.1
2023-02-19T20:19:25.217Z,9.1
2023-02-19T20:24:31.332Z,9.1
2023-02-19T20:29:37.348Z,9.1
2023-02-19T20:34:43.381Z,9
2023-02-19T20:39:49.448Z,9
2023-02-19T20:44:55.531Z,9
2023-02-19T20:50:03.477Z,9
2023-02-19T20:55:11.413Z,8.9
2023-02-19T21:00:19.348Z,8.9
2023-02-19T21:05:27.308Z,8.9
2023-02-19T21:10:35.242Z,8.9
2023-02-19T21:15:43.208Z,8.9
2023-02-19T21:20:51.124Z,8.9
2023-02-19T21:25:59.065Z,8.8
2023-02-19T21:31:07.057Z,8.8
2023-02-19T21:36:14.957Z,8.8
2023-02-19T21:41:22.906Z,8.8
2023-02-19T21:46:30.834Z,8.8
2023-02-19T21:51:38.782Z,8.7
2023-02-19T21:56:46.744Z,8.7
2023-02-19T22:01:54.666Z,8.7
2023-02-19T22:07:02.611Z,8.7
2023-02-19T22:12:10.538Z,8.7
2023-02-19T22:17:18.493Z,8.6
2023-02-19T22:22:26.541Z,8.6
2023-02-19T22:27:34.368Z,8.6
2023-02-19T22:32:42.326Z,8.6
2023-02-19T22:37:50.263Z,8.6
2023-02-19T22:42:58.201Z,8.5
2023-02-19T22:48:06.138Z,8.5
2023-02-19T22:53:14.052Z,8.5
2023-02-19T22:58:22.013Z,8.5
2023-02-19T23:03:30.114Z,8.5
2023-02-19T23:08:37.888Z,8.4
2023-02-19T23:13:43.953Z,8.4
2023-02-19T23:18:50.012Z,8.4
2023-02-19T23:23:56.097Z,8.4
2023-02-19T23:29:02.186Z,8.3
2023-02-19T23:34:10.075Z,8.3
2023-02-19T23:39:16.136Z,8.3
2023-02-19T23:44:22.204Z,8.2
2023-02-19T23:49:28.289Z,8.2
2023-02-19T23:54:34.343Z,8.2
2023-02-19T23:59:40.398Z,8.2
